createdAt,value
2022-10-29T00:01:47.760Z,30.37
2022-10-29T00:04:19.292Z,33.70
2022-10-29T00:06:51.083Z,32.77
2022-10-29T00:09:19.882Z,33.47
2022-10-29T00:11:50.922Z,33.37
2022-10-29T00:14:23.468Z,32.77
2022-10-29T00:16:55.044Z,34.33
2022-10-29T00:19:25.631Z,35.43
2022-10-29T00:21:55.818Z,32.83
2022-10-29T00:24:24.552Z,31.47
2022-10-29T00:26:57.613Z,31.67
2022-10-29T00:29:30.704Z,32.27
2022-10-29T00:32:00.914Z,31.67
2022-10-29T00:34:33.705Z,35.60
2022-10-29T00:37:11.808Z,43.80
2022-10-29T00:39:47.576Z,41.53
2022-10-29T00:42:23.418Z,38.27
2022-10-29T00:45:00.161Z,37.37
2022-10-29T00:47:40.696Z,38.60
2022-10-29T00:50:19.004Z,37.30
2022-10-29T00:52:58.327Z,35.00
2022-10-29T00:55:31.511Z,41.30
2022-10-29T00:58:06.628Z,42.10
2022-10-29T01:00:45.410Z,46.70
2022-10-29T01:03:19.073Z,42.97
2022-10-29T01:05:54.496Z,47.40
2022-10-29T01:08:28.864Z,47.90
2022-10-29T01:11:15.117Z,49.17
2022-10-29T01:14:15.570Z,54.17
2022-10-29T01:17:05.548Z,48.70
2022-10-29T01:20:17.707Z,51.70
2022-10-29T01:23:04.026Z,48.57
2022-10-29T01:26:14.986Z,52.63
2022-10-29T01:29:15.149Z,52.23
2022-10-29T01:32:08.201Z,48.33
2022-10-29T01:34:45.929Z,49.00
2022-10-29T01:37:24.338Z,50.20
2022-10-29T01:40:03.320Z,46.83
2022-10-29T01:42:45.319Z,45.63
2022-10-29T01:45:22.457Z,45.90
2022-10-29T01:47:57.556Z,48.97
2022-10-29T01:50:27.518Z,44.17
2022-10-29T01:52:59.665Z,40.37
2022-10-29T01:55:39.098Z,40.23
2022-10-29T01:58:10.367Z,45.10
2022-10-29T02:00:52.817Z,48.93
2022-10-29T02:03:38.869Z,45.47
2022-10-29T02:06:30.808Z,43.53
2022-10-29T02:09:15.326Z,43.33
2022-10-29T02:11:48.900Z,42.90
2022-10-29T02:14:22.481Z,44.17
2022-10-29T02:16:51.738Z,43.13
2022-10-29T02:19:22.329Z,40.43
2022-10-29T02:21:52.464Z,39.57
2022-10-29T02:24:21.237Z,35.83
2022-10-29T02:26:49.849Z,33.50
2022-10-29T02:29:18.824Z,32.93
2022-10-29T02:31:47.463Z,34.43
2022-10-29T02:34:16.175Z,34.17
2022-10-29T02:36:46.767Z,33.77
2022-10-29T02:39:15.805Z,35.20
2022-10-29T02:41:55.527Z,36.17
2022-10-29T02:44:27.164Z,34.07
2022-10-29T02:46:57.024Z,33.30
2022-10-29T02:49:26.123Z,32.23
2022-10-29T02:52:04.771Z,32.87
2022-10-29T02:54:53.827Z,32.03
2022-10-29T02:57:28.432Z,35.43
2022-10-29T02:59:58.624Z,31.00
2022-10-29T03:02:36.797Z,32.67
2022-10-29T03:05:16.001Z,30.97
2022-10-29T03:07:55.182Z,34.23
2022-10-29T03:10:26.845Z,35.63
2022-10-29T03:12:55.713Z,35.00
2022-10-29T03:15:30.172Z,32.80
2022-10-29T03:18:01.746Z,32.40
2022-10-29T03:20:31.229Z,34.23
2022-10-29T03:23:01.778Z,36.10
2022-10-29T03:25:30.430Z,36.43
2022-10-29T03:27:59.290Z,35.97
2022-10-29T03:30:28.055Z,35.37
2022-10-29T03:32:56.813Z,35.67
2022-10-29T03:35:25.814Z,30.53
2022-10-29T03:37:54.882Z,33.27
2022-10-29T03:40:25.067Z,36.30
2022-10-29T03:42:54.217Z,38.40
2022-10-29T03:45:23.301Z,36.67
2022-10-29T03:47:52.066Z,39.27
2022-10-29T03:50:21.436Z,39.93
2022-10-29T03:52:50.112Z,43.57
2022-10-29T03:55:20.713Z,41.27
2022-10-29T03:57:50.989Z,40.37
2022-10-29T04:00:19.860Z,41.00
2022-10-29T04:02:48.663Z,39.00
2022-10-29T04:05:17.917Z,39.17
2022-10-29T04:07:46.554Z,36.33
2022-10-29T04:10:15.215Z,38.20
2022-10-29T04:12:47.650Z,35.70
2022-10-29T04:15:17.970Z,36.27
2022-10-29T04:17:46.652Z,35.70
2022-10-29T04:20:33.494Z,35.33
2022-10-29T04:24:24.725Z,108.05
2022-10-29T04:28:36.703Z,34.87
2022-10-29T04:28:50.630Z,38.87
2022-10-29T04:31:22.221Z,35.93
2022-10-29T04:33:50.829Z,31.13
2022-10-29T04:36:19.453Z,36.60
2022-10-29T04:38:48.098Z,34.20
2022-10-29T04:41:16.926Z,35.33
2022-10-29T04:43:45.616Z,34.97
2022-10-29T04:46:14.486Z,36.43
2022-10-29T04:48:45.175Z,36.07
2022-10-29T04:51:22.075Z,33.93
2022-10-29T04:53:53.051Z,32.20
2022-10-29T04:56:21.835Z,41.00
2022-10-29T04:58:54.021Z,39.20
2022-10-29T05:01:25.216Z,39.87
2022-10-29T05:04:04.999Z,41.30
2022-10-29T05:06:36.085Z,40.37
2022-10-29T05:09:09.711Z,45.00
2022-10-29T05:11:38.409Z,53.13
2022-10-29T05:14:07.012Z,55.73
2022-10-29T05:16:35.633Z,85.93
2022-10-29T05:19:06.910Z,56.37
2022-10-29T05:21:35.846Z,59.07
2022-10-29T05:24:04.571Z,59.83
2022-10-29T05:26:34.131Z,50.43
2022-10-29T05:29:02.947Z,55.80
2022-10-29T05:31:31.724Z,48.73
2022-10-29T05:34:00.555Z,46.10
2022-10-29T05:36:30.728Z,45.30
2022-10-29T05:38:59.530Z,44.83
2022-10-29T05:41:28.823Z,42.83
2022-10-29T05:43:59.066Z,43.03
2022-10-29T05:46:30.542Z,59.70
2022-10-29T05:48:59.246Z,60.17
2022-10-29T05:51:29.923Z,74.50
2022-10-29T05:54:01.544Z,82.10
2022-10-29T05:56:32.178Z,109.57
2022-10-29T05:59:05.058Z,217.97
2022-10-29T06:01:36.280Z,207.23
2022-10-29T06:04:06.933Z,225.03
2022-10-29T06:06:37.150Z,235.40
2022-10-29T06:09:09.757Z,236.60
2022-10-29T06:11:39.738Z,239.73
2022-10-29T06:14:12.572Z,241.23
2022-10-29T06:16:44.146Z,231.80
2022-10-29T06:19:14.838Z,229.83
2022-10-29T06:21:49.605Z,261.93
2022-10-29T06:24:20.410Z,233.63
2022-10-29T06:26:52.557Z,259.10
2022-10-29T06:29:30.191Z,241.17
2022-10-29T06:32:25.399Z,221.23
2022-10-29T06:34:55.582Z,240.17
2022-10-29T06:37:33.408Z,239.80
2022-10-29T06:40:09.190Z,223.93
2022-10-29T06:42:38.092Z,235.03
2022-10-29T06:45:08.914Z,239.40
2022-10-29T06:47:42.923Z,223.13
2022-10-29T06:50:14.212Z,237.97
2022-10-29T06:52:43.966Z,233.07
2022-10-29T06:55:15.822Z,232.77
2022-10-29T06:57:46.757Z,225.83
2022-10-29T07:00:15.583Z,205.50
2022-10-29T07:02:44.298Z,206.07
2022-10-29T07:05:15.355Z,194.73
2022-10-29T07:07:46.641Z,192.80
2022-10-29T07:10:18.573Z,217.47
2022-10-29T07:12:47.485Z,222.97
2022-10-29T07:15:20.231Z,214.13
2022-10-29T07:18:02.083Z,201.90
2022-10-29T07:20:35.420Z,219.17
2022-10-29T07:23:06.070Z,201.40
2022-10-29T07:25:40.494Z,197.80
2022-10-29T07:28:13.709Z,177.17
2022-10-29T07:30:43.414Z,178.83
2022-10-29T07:33:15.057Z,193.10
2022-10-29T07:35:44.084Z,218.47
2022-10-29T07:38:23.070Z,126.00
2022-10-29T07:40:53.517Z,131.90
2022-10-29T07:43:23.268Z,144.70
2022-10-29T07:45:53.461Z,155.70
2022-10-29T07:48:22.906Z,131.00
2022-10-29T07:51:02.862Z,119.10
2022-10-29T07:53:36.029Z,135.10
2022-10-29T07:56:10.432Z,116.03
2022-10-29T07:58:40.820Z,118.83
2022-10-29T08:01:12.349Z,107.17
2022-10-29T08:03:45.722Z,103.73
2022-10-29T08:06:14.489Z,104.77
2022-10-29T08:08:46.626Z,452.58
2022-10-29T08:11:19.829Z,232.20
2022-10-29T08:13:51.353Z,171.47
2022-10-29T08:16:20.470Z,167.63
2022-10-29T08:18:51.063Z,136.17
2022-10-29T08:21:20.162Z,172.80
2022-10-29T08:23:48.743Z,165.60
2022-10-29T08:26:22.427Z,170.50
2022-10-29T08:28:53.467Z,174.47
2022-10-29T08:31:22.846Z,180.33
2022-10-29T08:33:51.408Z,179.50
2022-10-29T08:36:20.578Z,200.63
2022-10-29T08:38:51.124Z,195.20
2022-10-29T08:41:37.295Z,195.10
2022-10-29T08:44:35.429Z,216.97
2022-10-29T08:47:14.063Z,187.73
2022-10-29T08:49:50.457Z,182.50
2022-10-29T08:52:27.963Z,202.17
2022-10-29T08:55:12.253Z,215.60
2022-10-29T08:57:47.639Z,210.00
2022-10-29T09:00:19.576Z,222.83
2022-10-29T09:02:49.053Z,218.40
2022-10-29T09:05:21.506Z,229.20
2022-10-29T09:08:10.105Z,219.37
2022-10-29T09:10:46.151Z,225.13
2022-10-29T09:13:44.181Z,213.67
2022-10-29T09:16:38.067Z,206.80
2022-10-29T09:19:46.267Z,208.90
2022-10-29T09:22:28.829Z,221.97
2022-10-29T09:25:12.857Z,225.33
2022-10-29T09:27:58.688Z,240.13
2022-10-29T09:30:36.148Z,235.48
2022-10-29T09:33:14.096Z,211.13
2022-10-29T09:35:45.734Z,230.53
2022-10-29T09:38:19.047Z,236.02
2022-10-29T09:40:48.005Z,231.90
2022-10-29T09:43:39.321Z,232.27
2022-10-29T09:46:23.020Z,236.65
2022-10-29T09:51:44.531Z,242.48
2022-10-29T09:54:25.618Z,248.07
2022-10-29T09:56:56.171Z,248.32
2022-10-29T09:59:34.056Z,243.13
2022-10-29T10:02:06.219Z,231.27
2022-10-29T10:04:41.579Z,229.43
2022-10-29T10:07:12.807Z,238.90
2022-10-29T10:09:58.294Z,238.70
2022-10-29T10:12:29.232Z,102.63
2022-10-29T10:15:11.116Z,232.93
2022-10-29T10:18:04.789Z,205.37
2022-10-29T10:20:40.657Z,156.60
2022-10-29T10:23:25.661Z,233.07
2022-10-29T10:26:00.431Z,125.60
2022-10-29T10:28:37.232Z,108.27
2022-10-29T10:31:16.407Z,115.60
2022-10-29T10:33:58.178Z,108.27
2022-10-29T10:36:33.674Z,236.73
2022-10-29T10:39:04.089Z,222.80
2022-10-29T10:41:43.624Z,251.68
2022-10-29T10:44:18.834Z,225.03
2022-10-29T10:46:48.181Z,239.93
2022-10-29T10:49:20.291Z,274.10
2022-10-29T10:51:53.347Z,225.02
2022-10-29T10:54:31.613Z,274.77
2022-10-29T10:57:02.551Z,265.43
2022-10-29T10:59:48.019Z,237.87
2022-10-29T11:02:25.544Z,235.60
2022-10-29T11:05:03.699Z,225.98
2022-10-29T11:07:42.644Z,225.33
2022-10-29T11:10:16.445Z,434.08
2022-10-29T11:12:51.613Z,205.45
2022-10-29T11:15:34.301Z,203.95
2022-10-29T11:18:13.873Z,204.13
2022-10-29T11:20:55.196Z,220.05
2022-10-29T11:23:34.266Z,193.03
2022-10-29T11:26:10.103Z,209.43
2022-10-29T11:28:44.442Z,476.43
2022-10-29T11:31:22.687Z,194.82
2022-10-29T11:33:59.720Z,235.45
2022-10-29T11:36:35.996Z,221.13
2022-10-29T11:39:12.127Z,237.82
2022-10-29T11:45:04.673Z,213.63
2022-10-29T11:47:46.709Z,203.57
2022-10-29T11:50:27.763Z,225.48
2022-10-29T11:53:09.876Z,197.20
2022-10-29T11:55:50.673Z,211.65
2022-10-29T11:58:24.673Z,216.95
2022-10-29T12:01:02.394Z,220.00
2022-10-29T12:03:45.039Z,227.87
2022-10-29T12:06:19.765Z,204.07
2022-10-29T12:09:06.762Z,118.53
2022-10-29T12:11:43.227Z,219.75
2022-10-29T12:14:25.376Z,227.35
2022-10-29T12:17:03.960Z,215.73
2022-10-29T12:19:52.081Z,226.05
2022-10-29T12:22:30.356Z,250.10
2022-10-29T12:25:21.975Z,451.25
2022-10-29T12:28:01.176Z,249.98
2022-10-29T12:30:35.492Z,492.48
2022-10-29T12:33:09.632Z,196.38
2022-10-29T12:35:44.059Z,211.27
2022-10-29T12:38:26.607Z,221.75
2022-10-29T12:41:04.549Z,213.13
2022-10-29T12:43:36.454Z,219.95
2022-10-29T12:46:20.781Z,212.57
2022-10-29T12:49:04.824Z,211.20
2022-10-29T12:51:41.505Z,194.68
2022-10-29T12:54:29.390Z,203.20
2022-10-29T12:57:08.236Z,233.43
2022-10-29T12:59:38.488Z,227.68
2022-10-29T13:02:47.347Z,210.67
2022-10-29T13:05:43.438Z,239.40
2022-10-29T13:08:37.641Z,226.90
2022-10-29T13:11:25.999Z,219.03
2022-10-29T13:14:01.653Z,244.93
2022-10-29T13:16:36.139Z,228.70
2022-10-29T13:19:24.016Z,232.13
2022-10-29T13:22:04.057Z,231.80
2022-10-29T13:24:33.448Z,187.40
2022-10-29T13:27:10.064Z,375.50
2022-10-29T13:30:25.996Z,171.20
2022-10-29T13:32:58.029Z,207.70
2022-10-29T13:35:48.460Z,92.50
2022-10-29T13:38:19.735Z,227.73
2022-10-29T13:41:10.885Z,185.43
2022-10-29T13:43:41.601Z,205.57
2022-10-29T13:46:39.079Z,207.90
2022-10-29T13:49:23.306Z,169.00
2022-10-29T13:52:01.074Z,209.00
2022-10-29T13:54:38.707Z,195.80
2022-10-29T13:57:15.916Z,183.43
2022-10-29T13:59:59.658Z,194.10
2022-10-29T14:02:46.005Z,393.10
2022-10-29T14:05:20.038Z,213.57
2022-10-29T14:07:56.270Z,197.33
2022-10-29T14:10:26.827Z,205.83
2022-10-29T14:13:00.839Z,199.73
2022-10-29T14:15:29.938Z,412.77
2022-10-29T14:17:59.999Z,221.60
2022-10-29T14:20:30.441Z,256.03
2022-10-29T14:23:08.271Z,213.17
2022-10-29T14:25:37.687Z,228.80
2022-10-29T14:28:18.616Z,244.13
2022-10-29T14:30:48.300Z,211.23
2022-10-29T14:33:25.835Z,226.90
2022-10-29T14:35:58.309Z,224.27
2022-10-29T14:38:34.200Z,222.73
2022-10-29T14:41:03.750Z,194.93
2022-10-29T14:43:32.717Z,206.17
2022-10-29T14:46:13.678Z,199.73
2022-10-29T14:48:54.104Z,171.43
2022-10-29T14:51:23.646Z,202.83
2022-10-29T14:54:03.710Z,191.83
2022-10-29T14:56:35.832Z,195.47
2022-10-29T14:59:11.962Z,202.83
2022-10-29T15:01:48.367Z,202.07
2022-10-29T15:04:26.889Z,215.00
2022-10-29T15:06:58.545Z,157.53
2022-10-29T15:09:29.383Z,171.27
2022-10-29T15:12:03.178Z,172.73
2022-10-29T15:14:47.443Z,159.07
2022-10-29T15:17:22.803Z,155.57
2022-10-29T15:19:56.627Z,134.67
2022-10-29T15:22:32.643Z,140.27
2022-10-29T15:25:03.767Z,140.27
2022-10-29T15:27:32.683Z,132.90
2022-10-29T15:30:01.845Z,163.77
2022-10-29T15:32:31.643Z,112.90
2022-10-29T15:35:02.518Z,122.30
2022-10-29T15:37:44.393Z,133.20
2022-10-29T15:40:15.524Z,150.47
2022-10-29T15:42:45.563Z,115.07
2022-10-29T15:45:22.985Z,127.13
2022-10-29T15:47:53.502Z,103.30
2022-10-29T15:50:25.682Z,98.37
2022-10-29T15:52:57.673Z,97.17
2022-10-29T15:55:32.165Z,101.67
2022-10-29T15:58:06.120Z,86.20
2022-10-29T16:00:35.002Z,80.63
2022-10-29T16:03:14.056Z,102.90
2022-10-29T16:05:47.341Z,93.23
2022-10-29T16:08:27.132Z,92.23
2022-10-29T16:10:56.339Z,89.97
2022-10-29T16:13:25.578Z,99.20
2022-10-29T16:15:54.235Z,99.30
2022-10-29T16:18:25.652Z,97.80
2022-10-29T16:21:01.399Z,90.70
2022-10-29T16:23:29.992Z,70.90
2022-10-29T16:25:58.791Z,73.00
2022-10-29T16:28:28.768Z,60.93
2022-10-29T16:31:02.799Z,65.50
2022-10-29T16:33:31.576Z,67.07
2022-10-29T16:36:01.799Z,66.00
2022-10-29T16:38:34.868Z,69.27
2022-10-29T16:41:03.607Z,83.10
2022-10-29T16:43:32.414Z,69.20
2022-10-29T16:46:04.405Z,73.83
2022-10-29T16:48:34.484Z,76.13
2022-10-29T16:51:04.719Z,93.37
2022-10-29T16:53:33.710Z,97.67
2022-10-29T16:56:03.089Z,97.67
2022-10-29T16:58:31.885Z,83.50
2022-10-29T17:01:04.723Z,91.87
2022-10-29T17:03:34.612Z,89.27
2022-10-29T17:06:10.912Z,80.40
2022-10-29T17:08:43.636Z,83.53
2022-10-29T17:11:12.268Z,78.60
2022-10-29T17:13:41.394Z,88.07
2022-10-29T17:16:11.413Z,81.40
2022-10-29T17:18:40.402Z,75.63
2022-10-29T17:21:10.702Z,78.37
2022-10-29T17:23:39.640Z,83.43
2022-10-29T17:26:08.381Z,100.00
2022-10-29T17:28:40.599Z,85.90
2022-10-29T17:31:10.342Z,83.20
2022-10-29T17:33:39.205Z,70.50
2022-10-29T17:36:12.867Z,67.53
2022-10-29T17:38:41.991Z,81.30
2022-10-29T17:41:10.840Z,75.67
2022-10-29T17:43:39.565Z,232.87
2022-10-29T17:46:08.452Z,99.87
2022-10-29T17:48:37.161Z,112.50
2022-10-29T17:51:06.161Z,96.10
2022-10-29T17:53:36.376Z,119.13
2022-10-29T17:56:05.096Z,104.67
2022-10-29T17:58:33.768Z,101.73
2022-10-29T18:01:06.993Z,90.47
2022-10-29T18:03:35.828Z,95.57
2022-10-29T18:06:05.716Z,247.73
2022-10-29T18:08:36.789Z,121.47
2022-10-29T18:11:06.893Z,104.13
2022-10-29T18:13:39.588Z,100.30
2022-10-29T18:16:08.879Z,96.27
2022-10-29T18:18:54.422Z,100.70
2022-10-29T18:21:29.983Z,85.20
2022-10-29T18:24:00.190Z,84.97
2022-10-29T18:26:30.953Z,89.87
2022-10-29T18:29:00.941Z,187.38
2022-10-29T18:31:31.251Z,72.03
2022-10-29T18:34:00.484Z,83.83
2022-10-29T18:36:29.495Z,95.30
2022-10-29T18:39:01.190Z,86.83
2022-10-29T18:41:30.031Z,90.80
2022-10-29T18:43:59.527Z,84.23
2022-10-29T18:46:28.501Z,75.03
2022-10-29T18:48:57.151Z,80.77
2022-10-29T18:51:27.185Z,108.57
2022-10-29T18:53:58.494Z,101.60
2022-10-29T18:56:30.252Z,94.33
2022-10-29T18:59:03.557Z,96.57
2022-10-29T19:01:34.154Z,104.10
2022-10-29T19:07:53.301Z,84.50
2022-10-29T19:10:22.007Z,78.80
2022-10-29T19:12:52.201Z,83.20
2022-10-29T19:15:20.897Z,79.57
2022-10-29T19:17:50.293Z,76.67
2022-10-29T19:20:19.758Z,64.87
2022-10-29T19:22:48.784Z,63.60
2022-10-29T19:25:17.589Z,68.93
2022-10-29T19:27:46.286Z,66.17
2022-10-29T19:30:16.941Z,58.43
2022-10-29T19:32:46.153Z,55.93
2022-10-29T19:35:15.002Z,54.80
2022-10-29T19:37:46.889Z,52.53
2022-10-29T19:40:15.691Z,47.97
2022-10-29T19:42:44.378Z,48.80
2022-10-29T19:45:13.159Z,48.43
2022-10-29T19:47:43.504Z,43.87
2022-10-29T19:50:14.508Z,43.87
2022-10-29T19:52:43.260Z,43.77
2022-10-29T19:55:14.718Z,41.27
2022-10-29T19:57:43.913Z,44.73
2022-10-29T20:00:16.789Z,50.30
2022-10-29T20:02:47.987Z,56.87
2022-10-29T20:05:16.909Z,62.57
2022-10-29T20:08:04.215Z,144.50
2022-10-29T20:10:33.172Z,50.37
2022-10-29T20:13:01.990Z,53.63
2022-10-29T20:15:30.652Z,64.07
2022-10-29T20:18:00.973Z,70.40
2022-10-29T20:20:29.810Z,60.90
2022-10-29T20:23:00.585Z,46.03
2022-10-29T20:25:29.896Z,42.70
2022-10-29T20:27:59.959Z,42.70
2022-10-29T20:30:28.953Z,43.63
2022-10-29T20:32:58.107Z,41.90
2022-10-29T20:35:28.371Z,43.00
2022-10-29T20:37:57.375Z,41.97
2022-10-29T20:40:26.558Z,41.03
2022-10-29T20:42:55.233Z,41.33
2022-10-29T20:45:24.430Z,42.20
2022-10-29T20:47:53.152Z,42.50
2022-10-29T20:50:21.825Z,41.13
2022-10-29T20:52:53.892Z,40.83
2022-10-29T20:55:22.612Z,45.60
2022-10-29T20:57:51.398Z,39.17
2022-10-29T21:00:20.317Z,37.73
2022-10-29T21:02:49.246Z,39.77
2022-10-29T21:05:18.085Z,42.77
2022-10-29T21:07:46.923Z,49.80
2022-10-29T21:10:17.180Z,52.27
2022-10-29T21:12:45.859Z,45.90
2022-10-29T21:15:14.732Z,47.43
2022-10-29T21:17:44.154Z,41.83
2022-10-29T21:20:12.814Z,38.13
2022-10-29T21:22:41.735Z,40.53
2022-10-29T21:25:11.549Z,38.47
2022-10-29T21:27:41.612Z,39.33
2022-10-29T21:30:11.583Z,44.33
2022-10-29T21:32:42.988Z,45.97
2022-10-29T21:35:11.885Z,40.57
2022-10-29T21:37:41.313Z,37.97
2022-10-29T21:40:11.521Z,38.37
2022-10-29T21:42:42.118Z,40.70
2022-10-29T21:45:11.587Z,41.83
2022-10-29T21:47:40.284Z,46.47
2022-10-29T21:50:09.845Z,53.60
2022-10-29T21:52:38.571Z,55.57
2022-10-29T21:55:07.858Z,55.33
2022-10-29T21:57:37.881Z,50.17
2022-10-29T22:00:12.958Z,45.77
2022-10-29T22:02:41.661Z,54.50
2022-10-29T22:05:10.741Z,56.27
2022-10-29T22:07:40.030Z,60.87
2022-10-29T22:10:09.663Z,66.50
2022-10-29T22:12:38.626Z,132.18
2022-10-29T22:15:10.667Z,58.23
2022-10-29T22:17:39.288Z,183.00
2022-10-29T22:20:08.946Z,44.07
2022-10-29T22:22:37.674Z,48.23
2022-10-29T22:25:07.043Z,54.40
2022-10-29T22:27:36.079Z,57.27
2022-10-29T22:30:06.336Z,54.77
2022-10-29T22:32:36.419Z,52.63
2022-10-29T22:35:05.264Z,51.37
2022-10-29T22:37:33.802Z,48.47
2022-10-29T22:40:02.380Z,43.83
2022-10-29T22:42:31.007Z,46.00
2022-10-29T22:44:59.730Z,51.53
2022-10-29T22:47:28.505Z,54.57
2022-10-29T22:49:59.677Z,56.50
2022-10-29T22:52:28.360Z,50.00
2022-10-29T22:54:56.959Z,49.87
2022-10-29T22:57:27.991Z,44.23
2022-10-29T22:59:56.645Z,43.63
2022-10-29T23:02:25.515Z,44.33
2022-10-29T23:04:54.139Z,43.40
2022-10-29T23:07:24.426Z,43.77
2022-10-29T23:09:53.065Z,42.47
2022-10-29T23:12:21.759Z,43.73
2022-10-29T23:14:50.573Z,42.23
2022-10-29T23:17:19.419Z,44.13
2022-10-29T23:19:48.106Z,44.53
2022-10-29T23:22:19.166Z,49.10
2022-10-29T23:24:51.292Z,45.47
2022-10-29T23:27:19.878Z,52.67
2022-10-29T23:29:48.429Z,52.07
2022-10-29T23:32:17.197Z,44.83
2022-10-29T23:34:45.780Z,44.47
2022-10-29T23:37:14.392Z,41.03
2022-10-29T23:39:43.037Z,36.87
2022-10-29T23:42:13.162Z,37.03
2022-10-29T23:44:41.806Z,37.23
2022-10-29T23:47:10.373Z,35.20
2022-10-29T23:49:38.995Z,34.37
2022-10-29T23:52:07.683Z,33.93
2022-10-29T23:54:36.602Z,35.37
2022-10-29T23:57:05.461Z,39.20
2022-10-29T23:59:35.760Z,40.43
